Buoy 41991

sailwx.info

Track history (hours):
 
Tides and Currents Weather Stations Pressure Air Temp Water Temp Dewpoint Dewpoint Depression Visibility Wind Speed Wind Dir Waves Ship Positions

Drifting buoy 41991

Last reported at 2016-May-27 18:13 UTC. Time now 2016-May-27 20:03 UTC.
Position N 29°23' W 048°19'.

Water temperature 28.0 ° C

Date/timePositionNaut miles runAvg speedWind from/ knotsBaromVisibWave heightAir tempDewpointWater temp
2016-May-27 18:13N 29°23' W 048°19'1 0.2 28.0
2016-May-27 14:04N 29°23' W 048°20'0 1.6
2016-May-27 14:02N 29°23' W 048°20'0 0.5 26.0
2016-May-27 13:55N 29°23' W 048°20'0 0.2
2016-May-27 13:17N 29°23' W 048°20'0 0.1 25.4
2016-May-27 12:15N 29°23' W 048°20'0 0.3 24.2
2016-May-27 11:29N 29°23' W 048°20'0 0.0 23.9
2016-May-27 11:25N 29°23' W 048°20'0 0.3 23.9
2016-May-27 09:58N 29°23' W 048°19'0 1.7 23.8
2016-May-27 09:43N 29°23' W 048°19'0 0.0 23.8
2016-May-27 09:38N 29°23' W 048°19'0 0.0 23.8
2016-May-27 08:27N 29°23' W 048°19'0 2.4 23.8
2016-May-27 08:18N 29°23' W 048°19'0 0.3 23.8
2016-May-27 08:00N 29°23' W 048°18'0 0.4 23.8
2016-May-27 06:47N 29°23' W 048°18'0 0.0 23.9
2016-May-27 05:09N 29°23' W 048°18'1 0.3 23.9
2016-May-27 01:40N 29°24' W 048°17'0 0.3 24.0
2016-May-27 00:54N 29°24' W 048°17'1 0.3 24.0
2016-May-26 23:09N 29°25' W 048°17'012.5 24.2
2016-May-26 23:07N 29°25' W 048°17'0 0.0 24.2
2016-May-26 22:49N 29°25' W 048°17'0 0.7 24.2
2016-May-26 22:19N 29°25' W 048°17'0 0.0 24.3
2016-May-26 21:32N 29°25' W 048°17'0 0.6 24.3
2016-May-26 21:22N 29°25' W 048°17'0 1.8 24.3
2016-May-26 21:18N 29°25' W 048°17'0 0.0 24.3
2016-May-26 21:16N 29°25' W 048°17'0 0.4 24.3
2016-May-26 19:54N 29°26' W 048°17'0 0.6 24.5
2016-May-26 19:38N 29°26' W 048°17'0 0.1 24.4
2016-May-26 18:25N 29°26' W 048°17'0 0.0 24.4
2016-May-26 16:47N 29°26' W 048°17'0 0.1 24.2
2016-May-26 14:24N 29°26' W 048°17'0 9.6 23.9
2016-May-26 14:21N 29°25' W 048°17'0 0.2 23.9
2016-May-26 13:36N 29°25' W 048°17'0 0.1 23.8
2016-May-26 11:33N 29°25' W 048°17'0 0.1 23.7
2016-May-26 10:09N 29°25' W 048°17'1 0.5 23.7
2016-May-26 08:54N 29°25' W 048°16'0 0.3 23.7
2016-May-26 08:35N 29°25' W 048°16'0 0.6 23.7
2016-May-26 08:19N 29°25' W 048°16'0 2.6 23.7
2016-May-26 08:08N 29°25' W 048°15'0 0.2 23.7
2016-May-26 07:06N 29°25' W 048°15'1 5.2 23.7
2016-May-26 06:58N 29°25' W 048°15'1 0.3 23.7
2016-May-26 01:55N 29°26' W 048°13'0 0.0 23.7
2016-May-26 01:12N 29°26' W 048°13'0 3.1 23.8
2016-May-26 01:07N 29°26' W 048°13'0 0.2 23.8
2016-May-25 23:33N 29°26' W 048°13'0 1.8 23.8
2016-May-25 23:29N 29°26' W 048°13'0 1.8 23.8
2016-May-25 23:22N 29°27' W 048°13'0 0.0 23.8
2016-May-25 22:41N 29°27' W 048°13'1 0.6 23.8
2016-May-25 21:54N 29°27' W 048°13'0 0.6 23.9
2016-May-25 21:33N 29°27' W 048°13'0 1.6 23.9
2016-May-25 21:30N 29°27' W 048°13'0 0.3 23.9
2016-May-25 20:15N 29°27' W 048°13'0 0.0 23.9
2016-May-25 20:06N 29°27' W 048°13'0 0.0 23.9
2016-May-25 19:50N 29°27' W 048°13'0 2.4 23.9
2016-May-25 19:46N 29°27' W 048°13'0 0.2 23.9
2016-May-25 18:37N 29°27' W 048°13'0 0.2 23.9
2016-May-25 16:55N 29°26' W 048°13'1 0.2 23.9
2016-May-25 14:43N 29°26' W 048°13'0 0.1 23.8
2016-May-25 13:55N 29°26' W 048°13'0 0.0 23.8
2016-May-25 12:11N 29°26' W 048°13'0 0.3 23.7
2016-May-25 10:42N 29°26' W 048°13'1 0.9 23.7
2016-May-25 10:03N 29°25' W 048°12'0 0.0 23.7
2016-May-25 09:29N 29°25' W 048°12'0 0.8 23.7
2016-May-25 09:25N 29°25' W 048°12'0 1.0 23.7
2016-May-25 09:18N 29°25' W 048°12'0 0.0 23.7
2016-May-25 08:55N 29°25' W 048°12'0 0.5 23.7
2016-May-25 08:28N 29°25' W 048°12'0 0.5 23.7
2016-May-25 07:47N 29°25' W 048°12'0 0.1 23.8
2016-May-25 07:19N 29°25' W 048°12'1 4.4 23.8
2016-May-25 07:06N 29°25' W 048°11'2 0.3 23.8
2016-May-25 02:17N 29°25' W 048°09'0 0.0 23.9
2016-May-25 01:33N 29°25' W 048°09'0 3.1 23.9
2016-May-25 01:28N 29°25' W 048°08'0 0.4 23.9
2016-May-25 00:36N 29°25' W 048°08'0 0.0 23.9
2016-May-24 23:55N 29°25' W 048°08'0 0.0 24.0
2016-May-24 23:51N 29°25' W 048°08'0 0.4 24.0
2016-May-24 23:01N 29°25' W 048°08'0 2.1 24.0
2016-May-24 22:54N 29°25' W 048°08'0 0.1 24.0
2016-May-24 21:41N 29°25' W 048°08'0 0.3 24.0
2016-May-24 20:44N 29°25' W 048°08'0 1.5 24.1
2016-May-24 20:28N 29°26' W 048°08'0 0.0 24.1
2016-May-24 20:05N 29°26' W 048°08'0 0.8 24.1
2016-May-24 19:59N 29°26' W 048°08'0 2.9 24.1
2016-May-24 19:54N 29°25' W 048°08'0 0.3 24.1
2016-May-24 18:50N 29°25' W 048°08'0 4.8 24.1
2016-May-24 18:48N 29°25' W 048°07'0 3.8 24.1
2016-May-24 18:43N 29°25' W 048°08'1 0.3 24.1
2016-May-24 15:03N 29°24' W 048°07'0 0.0 24.0
2016-May-24 14:17N 29°24' W 048°07'0 4.5 24.0
2016-May-24 14:12N 29°25' W 048°07'0 0.0 24.0
2016-May-24 13:25N 29°25' W 048°07'1 0.4 24.0
2016-May-24 11:38N 29°24' W 048°07'0 0.0 23.9
2016-May-24 11:04N 29°24' W 048°07'0 5.1 23.9
2016-May-24 10:59N 29°24' W 048°07'0 0.2
2016-May-24 10:14N 29°24' W 048°07'0 0.0 24.0
2016-May-24 09:55N 29°24' W 048°07'1 0.5 23.9
2016-May-24 08:40N 29°24' W 048°06'0 2.0 24.0
2016-May-24 08:35N 29°24' W 048°06'0 1.7 24.0
2016-May-24 08:20N 29°24' W 048°06'0 0.7 24.0
2016-May-24 07:46N 29°24' W 048°06'0 1.0 24.0
2016-May-24 07:30N 29°24' W 048°06'0 0.2 24.0
2016-May-24 05:51N 29°24' W 048°06'1 0.2 24.0
2016-May-24 01:03N 29°24' W 048°05'0 1.4 24.2
2016-May-24 00:55N 29°24' W 048°05'0 0.3 24.2
2016-May-23 23:24N 29°24' W 048°06'0 0.7 24.3
2016-May-23 22:48N 29°25' W 048°05'0 1.4 24.3
2016-May-23 22:43N 29°25' W 048°05'0 0.0 24.3
2016-May-23 21:54N 29°25' W 048°05'1 7.2 24.3
2016-May-23 21:49N 29°24' W 048°06'0 0.2 24.3
2016-May-23 20:16N 29°24' W 048°06'0 0.0 24.4
2016-May-23 20:13N 29°24' W 048°06'0 0.3 24.4
2016-May-23 19:26N 29°24' W 048°06'0 2.6 24.5
2016-May-23 19:21N 29°24' W 048°07'0 0.0 24.5
2016-May-23 19:01N 29°24' W 048°07'0 0.1 24.5
2016-May-23 17:22N 29°24' W 048°06'1 0.8 24.3
2016-May-23 15:38N 29°23' W 048°08'0 0.3 24.2
2016-May-23 14:36N 29°23' W 048°07'0 0.0 24.2
2016-May-23 13:48N 29°23' W 048°07'0 0.4 24.1
2016-May-23 12:50N 29°23' W 048°07'1 0.8 24.0
2016-May-23 11:55N 29°22' W 048°08'0 0.0
2016-May-23 11:27N 29°22' W 048°08'0 0.1 24.0
2016-May-23 10:35N 29°22' W 048°08'1 5.0 23.9
2016-May-23 10:26N 29°22' W 048°07'0 0.5 23.9
2016-May-23 09:43N 29°21' W 048°07'0 0.2 23.9
2016-May-23 08:55N 29°21' W 048°07'0 1.3 23.9
2016-May-23 08:48N 29°21' W 048°07'0 3.3 23.9
2016-May-23 08:44N 29°22' W 048°07'0 0.4 23.9
2016-May-23 08:09N 29°22' W 048°07'0 0.7 23.9
2016-May-23 07:35N 29°22' W 048°06'0 0.6 23.9
2016-May-23 07:08N 29°22' W 048°07'0 0.2 23.9
2016-May-23 05:55N 29°22' W 048°07'1 0.2 23.9
2016-May-23 01:24N 29°22' W 048°06'1 4.4 24.0
2016-May-23 01:17N 29°23' W 048°05'1 0.3 24.0
2016-May-22 23:16N 29°23' W 048°06'0 0.3 24.1
2016-May-22 22:47N 29°23' W 048°06'0 0.2 24.1
2016-May-22 22:04N 29°23' W 048°06'0 2.6 24.2
2016-May-22 21:59N 29°23' W 048°06'0 0.0 24.2
2016-May-22 21:41N 29°23' W 048°06'0 0.8 24.2
2016-May-22 21:32N 29°23' W 048°06'0 0.3 24.2
2016-May-22 20:26N 29°23' W 048°06'0 0.3 24.3
2016-May-22 19:52N 29°23' W 048°06'0 0.1 24.4
2016-May-22 19:09N 29°23' W 048°06'0 7.9 24.4
2016-May-22 19:06N 29°24' W 048°07'0 0.0 24.4
2016-May-22 17:33N 29°24' W 048°07'1 0.5 24.3
2016-May-22 15:51N 29°23' W 048°07'0 0.0 24.1
2016-May-22 14:08N 29°23' W 048°07'0 2.5 24.0
2016-May-22 14:01N 29°23' W 048°07'0 0.0 24.0
2016-May-22 13:20N 29°23' W 048°07'0 0.9 24.0
2016-May-22 13:16N 29°24' W 048°07'0 0.4 24.0
2016-May-22 12:28N 29°24' W 048°07'0 0.3 24.0
2016-May-22 10:45N 29°24' W 048°07'0 1.6 24.0
2016-May-22 10:41N 29°24' W 048°07'0 0.9 24.0
2016-May-22 10:09N 29°24' W 048°08'0 0.0 24.0
2016-May-22 09:23N 29°24' W 048°08'0 0.6 24.0
2016-May-22 09:00N 29°24' W 048°08'0 0.2 24.0
2016-May-22 07:52N 29°25' W 048°08'0 1.6 24.0
2016-May-22 07:48N 29°25' W 048°08'0 1.0 24.0
2016-May-22 07:43N 29°25' W 048°08'0 0.2 24.0
2016-May-22 06:08N 29°25' W 048°08'3 0.6 24.0
2016-May-22 01:44N 29°27' W 048°10'1 5.2 24.0
2016-May-22 01:37N 29°27' W 048°11'0 0.0 24.0
2016-May-22 00:53N 29°27' W 048°11'0 3.1 24.1
2016-May-22 00:51N 29°27' W 048°11'1 0.9 24.1
2016-May-22 00:05N 29°27' W 048°11'1 2.3 24.1
2016-May-21 23:45N 29°28' W 048°12'0 0.2 24.1
2016-May-21 22:16N 29°28' W 048°12'0 0.0 24.2
2016-May-21 22:07N 29°28' W 048°12'1 0.5 24.2
2016-May-21 20:39N 29°29' W 048°13'0 1.0 24.2
2016-May-21 20:32N 29°29' W 048°13'116.3 24.2
2016-May-21 20:27N 29°29' W 048°14'0 0.0 24.2
2016-May-21 20:23N 29°29' W 048°14'0 0.0 24.2
2016-May-21 20:18N 29°29' W 048°14'0 0.0 24.2
2016-May-21 19:23N 29°29' W 048°14'0 4.7 24.2
2016-May-21 19:17N 29°29' W 048°15'2 0.6 24.2
2016-May-21 16:01N 29°28' W 048°17'1 0.8 24.2
2016-May-21 14:27N 29°28' W 048°18'0 5.0 24.1
2016-May-21 14:23N 29°28' W 048°19'0 0.4 24.1
2016-May-21 13:39N 29°27' W 048°18'1 0.5 24.0
2016-May-21 11:55N 29°27' W 048°19'0 0.0 23.9
2016-May-21 10:55N 29°27' W 048°19'0 8.6 23.9
2016-May-21 10:53N 29°27' W 048°19'0 1.0 23.9
2016-May-21 10:42N 29°27' W 048°19'0 0.3 23.9
2016-May-21 09:54N 29°27' W 048°19'0 0.7 23.9
2016-May-21 09:47N 29°27' W 048°19'0 0.0 23.9
2016-May-21 09:15N 29°27' W 048°19'0 1.2 23.9
2016-May-21 08:55N 29°27' W 048°19'1 0.9 23.9
2016-May-21 08:00N 29°28' W 048°18'2 0.3 23.9
2016-May-21 02:03N 29°28' W 048°20'1 0.9 24.0
2016-May-21 01:08N 29°29' W 048°21'0 0.0 24.1
2016-May-21 00:27N 29°29' W 048°21'1 1.1 24.2
2016-May-20 23:35N 29°29' W 048°22'0 0.5 24.2
2016-May-20 22:40N 29°30' W 048°22'1 3.3 24.2
2016-May-20 22:26N 29°30' W 048°23'112.9 24.2
2016-May-20 22:22N 29°30' W 048°24'112.9 24.2
2016-May-20 22:18N 29°30' W 048°23'1 0.7 24.2
2016-May-20 20:51N 29°29' W 048°24'217.6 24.4
2016-May-20 20:44N 29°28' W 048°26'0 0.0 24.4
2016-May-20 20:40N 29°28' W 048°26'0 0.0 24.4
2016-May-20 19:33N 29°28' W 048°26'0 0.0 24.4
2016-May-20 19:08N 29°28' W 048°26'0 0.0 24.4
2016-May-20 17:54N 29°28' W 048°26'2 0.8 24.4
2016-May-20 14:45N 29°26' W 048°27'0 0.0 24.1
2016-May-20 14:01N 29°26' W 048°27'212.9 24.0
2016-May-20 13:54N 29°25' W 048°26'0 0.0 24.0
2016-May-20 13:07N 29°25' W 048°26'0 0.1 24.0
2016-May-20 11:06N 29°25' W 048°26'1 0.9 23.9
2016-May-20 10:21N 29°24' W 048°26'1 0.4 23.9
2016-May-20 08:11N 29°25' W 048°25'1 0.5 23.9
2016-May-20 07:04N 29°24' W 048°25'0 0.1 23.9
2016-May-20 06:33N 29°24' W 048°25'0 3.2 23.9
2016-May-20 06:24N 29°24' W 048°25'0 0.1 23.9
2016-May-20 04:44N 29°25' W 048°25'0 0.0 23.9
2016-May-20 01:30N 29°25' W 048°25'0 0.4 24.0
2016-May-20 00:38N 29°25' W 048°26'0 0.0 24.0
2016-May-19 23:54N 29°25' W 048°26'0 0.4 24.0
2016-May-19 23:09N 29°25' W 048°25'1 3.8 24.1
2016-May-19 23:00N 29°24' W 048°26'0 0.0 24.1
2016-May-19 22:44N 29°24' W 048°26'0 0.0 24.1
2016-May-19 22:37N 29°24' W 048°26'1 0.5 24.1
2016-May-19 20:55N 29°24' W 048°27'0 0.0 24.2
2016-May-19 19:49N 29°24' W 048°27'1 0.8
2016-May-19 17:55N 29°23' W 048°28'0 0.0
2016-May-19 16:26N 29°23' W 048°28'1 0.8 24.0
2016-May-19 15:06N 29°22' W 048°27'0 0.0 24.0
2016-May-19 14:21N 29°22' W 048°27'0 5.9 24.0
2016-May-19 14:16N 29°21' W 048°27'0 0.0 24.0
2016-May-19 13:30N 29°21' W 048°27'013.1 23.9
2016-May-19 13:28N 29°21' W 048°27'0 0.4 23.9
2016-May-19 12:36N 29°21' W 048°27'1 6.3 23.9
2016-May-19 12:31N 29°21' W 048°27'0 0.0 23.9
2016-May-19 11:18N 29°21' W 048°27'1 9.2 23.8
2016-May-19 11:10N 29°20' W 048°26'0 0.0
2016-May-19 09:54N 29°20' W 048°26'1 3.1 23.8
2016-May-19 09:40N 29°20' W 048°25'0 2.4
2016-May-19 09:36N 29°20' W 048°26'0 0.6 23.8
2016-May-19 09:15N 29°20' W 048°26'0 0.4 23.8
2016-May-19 08:19N 29°20' W 048°25'0 0.0 23.8
2016-May-19 08:01N 29°20' W 048°25'0 0.0 23.8
2016-May-19 07:54N 29°20' W 048°25'1 0.7 23.9
2016-May-19 06:39N 29°20' W 048°24'0 8.2 23.9
2016-May-19 06:36N 29°20' W 048°25'1 0.1 23.9
2016-May-19 01:54N 29°19' W 048°24'0 0.0
2016-May-19 01:08N 29°19' W 048°24'0 2.2 24.0
2016-May-19 01:01N 29°19' W 048°25'0 0.0 24.0
2016-May-19 00:18N 29°19' W 048°25'0 0.5 24.0
2016-May-18 23:40N 29°19' W 048°24'0 0.2 24.0
2016-May-18 23:26N 29°19' W 048°24'0 1.0 24.0
2016-May-18 23:23N 29°19' W 048°24'0 0.6 24.0
2016-May-18 22:50N 29°19' W 048°24'0 0.2 24.1
2016-May-18 21:32N 29°19' W 048°24'0 3.8 24.2
2016-May-18 21:25N 29°19' W 048°25'0 0.0 24.2
2016-May-18 21:09N 29°19' W 048°25'1 0.8
2016-May-18 20:17N 29°19' W 048°25'0 0.0 24.4
2016-May-18 19:52N 29°19' W 048°25'0 1.0 24.4
2016-May-18 19:32N 29°19' W 048°25'1 0.5 24.4
2016-May-18 18:18N 29°18' W 048°24'0 1.8
2016-May-18 18:16N 29°18' W 048°24'1 0.5 24.4
2016-May-18 16:38N 29°18' W 048°25'1 0.5 24.4
2016-May-18 14:36N 29°17' W 048°24'0 0.0 24.3
2016-May-18 13:50N 29°17' W 048°24'0 0.2 24.2
2016-May-18 12:07N 29°17' W 048°23'0 0.6 23.9
2016-May-18 11:29N 29°16' W 048°23'0 0.1 23.9
2016-May-18 09:51N 29°16' W 048°23'0 0.3 23.9
2016-May-18 08:33N 29°16' W 048°23'0 0.7 23.9
2016-May-18 08:04N 29°16' W 048°22'0 0.2 24.0
2016-May-18 06:47N 29°16' W 048°22'0 0.0 24.0
2016-May-18 02:13N 29°16' W 048°22'0 0.0 24.2
2016-May-18 01:26N 29°16' W 048°22'0 1.1 24.2
2016-May-18 01:19N 29°16' W 048°22'0 0.0 24.2
2016-May-18 00:40N 29°16' W 048°22'0 0.8 24.2
2016-May-18 00:36N 29°16' W 048°22'0 2.0 24.2
2016-May-18 00:31N 29°16' W 048°23'0 0.1 24.2
2016-May-17 22:58N 29°16' W 048°23'0 2.6 24.3
2016-May-17 22:53N 29°16' W 048°22'0 0.3 24.3
2016-May-17 21:54N 29°16' W 048°22'0 1.4 24.5
2016-May-17 21:47N 29°16' W 048°22'0 0.0 24.5
2016-May-17 21:24N 29°16' W 048°22'0 1.2
2016-May-17 21:20N 29°16' W 048°22'1 0.6 24.5
2016-May-17 20:18N 29°16' W 048°23'0 3.8 24.5
2016-May-17 20:13N 29°16' W 048°23'0 0.0 24.5
2016-May-17 19:44N 29°16' W 048°23'0 0.2 24.7
2016-May-17 18:24N 29°16' W 048°23'   25.1
Track history (hours):
 
Tides and Currents Weather Stations Pressure Air Temp Water Temp Dewpoint Dewpoint Depression Visibility Wind Speed Wind Dir Waves Ship Positions

Drifting buoy 41991

Last reported at 2016-May-27 18:13 UTC. Time now 2016-May-27 20:03 UTC.
Position N 29°23' W 048°19'.

Water temperature 28.0 ° C

Date/timePositionNaut miles runAvg speedWind from/ knotsBaromVisibWave heightAir tempDewpointWater temp
2016-May-27 18:13N 29°23' W 048°19'1 0.2 28.0
2016-May-27 14:04N 29°23' W 048°20'0 1.6
2016-May-27 14:02N 29°23' W 048°20'0 0.5 26.0
2016-May-27 13:55N 29°23' W 048°20'0 0.2
2016-May-27 13:17N 29°23' W 048°20'0 0.1 25.4
2016-May-27 12:15N 29°23' W 048°20'0 0.3 24.2
2016-May-27 11:29N 29°23' W 048°20'0 0.0 23.9
2016-May-27 11:25N 29°23' W 048°20'0 0.3 23.9
2016-May-27 09:58N 29°23' W 048°19'0 1.7 23.8
2016-May-27 09:43N 29°23' W 048°19'0 0.0 23.8
2016-May-27 09:38N 29°23' W 048°19'0 0.0 23.8
2016-May-27 08:27N 29°23' W 048°19'0 2.4 23.8
2016-May-27 08:18N 29°23' W 048°19'0 0.3 23.8
2016-May-27 08:00N 29°23' W 048°18'0 0.4 23.8
2016-May-27 06:47N 29°23' W 048°18'0 0.0 23.9
2016-May-27 05:09N 29°23' W 048°18'1 0.3 23.9
2016-May-27 01:40N 29°24' W 048°17'0 0.3 24.0
2016-May-27 00:54N 29°24' W 048°17'1 0.3 24.0
2016-May-26 23:09N 29°25' W 048°17'012.5 24.2
2016-May-26 23:07N 29°25' W 048°17'0 0.0 24.2
2016-May-26 22:49N 29°25' W 048°17'0 0.7 24.2
2016-May-26 22:19N 29°25' W 048°17'0 0.0 24.3
2016-May-26 21:32N 29°25' W 048°17'0 0.6 24.3
2016-May-26 21:22N 29°25' W 048°17'0 1.8 24.3
2016-May-26 21:18N 29°25' W 048°17'0 0.0 24.3
2016-May-26 21:16N 29°25' W 048°17'0 0.4 24.3
2016-May-26 19:54N 29°26' W 048°17'0 0.6 24.5
2016-May-26 19:38N 29°26' W 048°17'0 0.1 24.4
2016-May-26 18:25N 29°26' W 048°17'0 0.0 24.4
2016-May-26 16:47N 29°26' W 048°17'0 0.1 24.2
2016-May-26 14:24N 29°26' W 048°17'0 9.6 23.9
2016-May-26 14:21N 29°25' W 048°17'0 0.2 23.9
2016-May-26 13:36N 29°25' W 048°17'0 0.1 23.8
2016-May-26 11:33N 29°25' W 048°17'0 0.1 23.7
2016-May-26 10:09N 29°25' W 048°17'1 0.5 23.7
2016-May-26 08:54N 29°25' W 048°16'0 0.3 23.7
2016-May-26 08:35N 29°25' W 048°16'0 0.6 23.7
2016-May-26 08:19N 29°25' W 048°16'0 2.6 23.7
2016-May-26 08:08N 29°25' W 048°15'0 0.2 23.7
2016-May-26 07:06N 29°25' W 048°15'1 5.2 23.7
2016-May-26 06:58N 29°25' W 048°15'1 0.3 23.7
2016-May-26 01:55N 29°26' W 048°13'0 0.0 23.7
2016-May-26 01:12N 29°26' W 048°13'0 3.1 23.8
2016-May-26 01:07N 29°26' W 048°13'0 0.2 23.8
2016-May-25 23:33N 29°26' W 048°13'0 1.8 23.8
2016-May-25 23:29N 29°26' W 048°13'0 1.8 23.8
2016-May-25 23:22N 29°27' W 048°13'0 0.0 23.8
2016-May-25 22:41N 29°27' W 048°13'1 0.6 23.8
2016-May-25 21:54N 29°27' W 048°13'0 0.6 23.9
2016-May-25 21:33N 29°27' W 048°13'0 1.6 23.9
2016-May-25 21:30N 29°27' W 048°13'0 0.3 23.9
2016-May-25 20:15N 29°27' W 048°13'0 0.0 23.9
2016-May-25 20:06N 29°27' W 048°13'0 0.0 23.9
2016-May-25 19:50N 29°27' W 048°13'0 2.4 23.9
2016-May-25 19:46N 29°27' W 048°13'0 0.2 23.9
2016-May-25 18:37N 29°27' W 048°13'0 0.2 23.9
2016-May-25 16:55N 29°26' W 048°13'1 0.2 23.9
2016-May-25 14:43N 29°26' W 048°13'0 0.1 23.8
2016-May-25 13:55N 29°26' W 048°13'0 0.0 23.8
2016-May-25 12:11N 29°26' W 048°13'0 0.3 23.7
2016-May-25 10:42N 29°26' W 048°13'1 0.9 23.7
2016-May-25 10:03N 29°25' W 048°12'0 0.0 23.7
2016-May-25 09:29N 29°25' W 048°12'0 0.8 23.7
2016-May-25 09:25N 29°25' W 048°12'0 1.0 23.7
2016-May-25 09:18N 29°25' W 048°12'0 0.0 23.7
2016-May-25 08:55N 29°25' W 048°12'0 0.5 23.7
2016-May-25 08:28N 29°25' W 048°12'0 0.5 23.7
2016-May-25 07:47N 29°25' W 048°12'0 0.1 23.8
2016-May-25 07:19N 29°25' W 048°12'1 4.4 23.8
2016-May-25 07:06N 29°25' W 048°11'2 0.3 23.8
2016-May-25 02:17N 29°25' W 048°09'0 0.0 23.9
2016-May-25 01:33N 29°25' W 048°09'0 3.1 23.9
2016-May-25 01:28N 29°25' W 048°08'0 0.4 23.9
2016-May-25 00:36N 29°25' W 048°08'0 0.0 23.9
2016-May-24 23:55N 29°25' W 048°08'0 0.0 24.0
2016-May-24 23:51N 29°25' W 048°08'0 0.4 24.0
2016-May-24 23:01N 29°25' W 048°08'0 2.1 24.0
2016-May-24 22:54N 29°25' W 048°08'0 0.1 24.0
2016-May-24 21:41N 29°25' W 048°08'0 0.3 24.0
2016-May-24 20:44N 29°25' W 048°08'0 1.5 24.1
2016-May-24 20:28N 29°26' W 048°08'0 0.0 24.1
2016-May-24 20:05N 29°26' W 048°08'0 0.8 24.1
2016-May-24 19:59N 29°26' W 048°08'0 2.9 24.1
2016-May-24 19:54N 29°25' W 048°08'0 0.3 24.1
2016-May-24 18:50N 29°25' W 048°08'0 4.8 24.1
2016-May-24 18:48N 29°25' W 048°07'0 3.8 24.1
2016-May-24 18:43N 29°25' W 048°08'1 0.3 24.1
2016-May-24 15:03N 29°24' W 048°07'0 0.0 24.0
2016-May-24 14:17N 29°24' W 048°07'0 4.5 24.0
2016-May-24 14:12N 29°25' W 048°07'0 0.0 24.0
2016-May-24 13:25N 29°25' W 048°07'1 0.4 24.0
2016-May-24 11:38N 29°24' W 048°07'0 0.0 23.9
2016-May-24 11:04N 29°24' W 048°07'0 5.1 23.9
2016-May-24 10:59N 29°24' W 048°07'0 0.2
2016-May-24 10:14N 29°24' W 048°07'0 0.0 24.0
2016-May-24 09:55N 29°24' W 048°07'1 0.5 23.9
2016-May-24 08:40N 29°24' W 048°06'0 2.0 24.0
2016-May-24 08:35N 29°24' W 048°06'0 1.7 24.0
2016-May-24 08:20N 29°24' W 048°06'0 0.7 24.0
2016-May-24 07:46N 29°24' W 048°06'0 1.0 24.0
2016-May-24 07:30N 29°24' W 048°06'0 0.2 24.0
2016-May-24 05:51N 29°24' W 048°06'1 0.2 24.0
2016-May-24 01:03N 29°24' W 048°05'0 1.4 24.2
2016-May-24 00:55N 29°24' W 048°05'0 0.3 24.2
2016-May-23 23:24N 29°24' W 048°06'0 0.7 24.3
2016-May-23 22:48N 29°25' W 048°05'0 1.4 24.3
2016-May-23 22:43N 29°25' W 048°05'0 0.0 24.3
2016-May-23 21:54N 29°25' W 048°05'1 7.2 24.3
2016-May-23 21:49N 29°24' W 048°06'0 0.2 24.3
2016-May-23 20:16N 29°24' W 048°06'0 0.0 24.4
2016-May-23 20:13N 29°24' W 048°06'0 0.3 24.4
2016-May-23 19:26N 29°24' W 048°06'0 2.6 24.5
2016-May-23 19:21N 29°24' W 048°07'0 0.0 24.5
2016-May-23 19:01N 29°24' W 048°07'0 0.1 24.5
2016-May-23 17:22N 29°24' W 048°06'1 0.8 24.3
2016-May-23 15:38N 29°23' W 048°08'0 0.3 24.2
2016-May-23 14:36N 29°23' W 048°07'0 0.0 24.2
2016-May-23 13:48N 29°23' W 048°07'0 0.4 24.1
2016-May-23 12:50N 29°23' W 048°07'1 0.8 24.0
2016-May-23 11:55N 29°22' W 048°08'0 0.0
2016-May-23 11:27N 29°22' W 048°08'0 0.1 24.0
2016-May-23 10:35N 29°22' W 048°08'1 5.0 23.9
2016-May-23 10:26N 29°22' W 048°07'0 0.5 23.9
2016-May-23 09:43N 29°21' W 048°07'0 0.2 23.9
2016-May-23 08:55N 29°21' W 048°07'0 1.3 23.9
2016-May-23 08:48N 29°21' W 048°07'0 3.3 23.9
2016-May-23 08:44N 29°22' W 048°07'0 0.4 23.9
2016-May-23 08:09N 29°22' W 048°07'0 0.7 23.9
2016-May-23 07:35N 29°22' W 048°06'0 0.6 23.9
2016-May-23 07:08N 29°22' W 048°07'0 0.2 23.9
2016-May-23 05:55N 29°22' W 048°07'1 0.2 23.9
2016-May-23 01:24N 29°22' W 048°06'1 4.4 24.0
2016-May-23 01:17N 29°23' W 048°05'1 0.3 24.0
2016-May-22 23:16N 29°23' W 048°06'0 0.3 24.1
2016-May-22 22:47N 29°23' W 048°06'0 0.2 24.1
2016-May-22 22:04N 29°23' W 048°06'0 2.6 24.2
2016-May-22 21:59N 29°23' W 048°06'0 0.0 24.2
2016-May-22 21:41N 29°23' W 048°06'0 0.8 24.2
2016-May-22 21:32N 29°23' W 048°06'0 0.3 24.2
2016-May-22 20:26N 29°23' W 048°06'0 0.3 24.3
2016-May-22 19:52N 29°23' W 048°06'0 0.1 24.4
2016-May-22 19:09N 29°23' W 048°06'0 7.9 24.4
2016-May-22 19:06N 29°24' W 048°07'0 0.0 24.4
2016-May-22 17:33N 29°24' W 048°07'1 0.5 24.3
2016-May-22 15:51N 29°23' W 048°07'0 0.0 24.1
2016-May-22 14:08N 29°23' W 048°07'0 2.5 24.0
2016-May-22 14:01N 29°23' W 048°07'0 0.0 24.0
2016-May-22 13:20N 29°23' W 048°07'0 0.9 24.0
2016-May-22 13:16N 29°24' W 048°07'0 0.4 24.0
2016-May-22 12:28N 29°24' W 048°07'0 0.3 24.0
2016-May-22 10:45N 29°24' W 048°07'0 1.6 24.0
2016-May-22 10:41N 29°24' W 048°07'0 0.9 24.0
2016-May-22 10:09N 29°24' W 048°08'0 0.0 24.0
2016-May-22 09:23N 29°24' W 048°08'0 0.6 24.0
2016-May-22 09:00N 29°24' W 048°08'0 0.2 24.0
2016-May-22 07:52N 29°25' W 048°08'0 1.6 24.0
2016-May-22 07:48N 29°25' W 048°08'0 1.0 24.0
2016-May-22 07:43N 29°25' W 048°08'0 0.2 24.0
2016-May-22 06:08N 29°25' W 048°08'3 0.6 24.0
2016-May-22 01:44N 29°27' W 048°10'1 5.2 24.0
2016-May-22 01:37N 29°27' W 048°11'0 0.0 24.0
2016-May-22 00:53N 29°27' W 048°11'0 3.1 24.1
2016-May-22 00:51N 29°27' W 048°11'1 0.9 24.1
2016-May-22 00:05N 29°27' W 048°11'1 2.3 24.1
2016-May-21 23:45N 29°28' W 048°12'0 0.2 24.1
2016-May-21 22:16N 29°28' W 048°12'0 0.0 24.2
2016-May-21 22:07N 29°28' W 048°12'1 0.5 24.2
2016-May-21 20:39N 29°29' W 048°13'0 1.0 24.2
2016-May-21 20:32N 29°29' W 048°13'116.3 24.2
2016-May-21 20:27N 29°29' W 048°14'0 0.0 24.2
2016-May-21 20:23N 29°29' W 048°14'0 0.0 24.2
2016-May-21 20:18N 29°29' W 048°14'0 0.0 24.2
2016-May-21 19:23N 29°29' W 048°14'0 4.7 24.2
2016-May-21 19:17N 29°29' W 048°15'2 0.6 24.2
2016-May-21 16:01N 29°28' W 048°17'1 0.8 24.2
2016-May-21 14:27N 29°28' W 048°18'0 5.0 24.1
2016-May-21 14:23N 29°28' W 048°19'0 0.4 24.1
2016-May-21 13:39N 29°27' W 048°18'1 0.5 24.0
2016-May-21 11:55N 29°27' W 048°19'0 0.0 23.9
2016-May-21 10:55N 29°27' W 048°19'0 8.6 23.9
2016-May-21 10:53N 29°27' W 048°19'0 1.0 23.9
2016-May-21 10:42N 29°27' W 048°19'0 0.3 23.9
2016-May-21 09:54N 29°27' W 048°19'0 0.7 23.9
2016-May-21 09:47N 29°27' W 048°19'0 0.0 23.9
2016-May-21 09:15N 29°27' W 048°19'0 1.2 23.9
2016-May-21 08:55N 29°27' W 048°19'1 0.9 23.9
2016-May-21 08:00N 29°28' W 048°18'2 0.3 23.9
2016-May-21 02:03N 29°28' W 048°20'1 0.9 24.0
2016-May-21 01:08N 29°29' W 048°21'0 0.0 24.1
2016-May-21 00:27N 29°29' W 048°21'1 1.1 24.2
2016-May-20 23:35N 29°29' W 048°22'0 0.5 24.2
2016-May-20 22:40N 29°30' W 048°22'1 3.3 24.2
2016-May-20 22:26N 29°30' W 048°23'112.9 24.2
2016-May-20 22:22N 29°30' W 048°24'112.9 24.2
2016-May-20 22:18N 29°30' W 048°23'1 0.7 24.2
2016-May-20 20:51N 29°29' W 048°24'217.6 24.4
2016-May-20 20:44N 29°28' W 048°26'0 0.0 24.4
2016-May-20 20:40N 29°28' W 048°26'0 0.0 24.4
2016-May-20 19:33N 29°28' W 048°26'0 0.0 24.4
2016-May-20 19:08N 29°28' W 048°26'0 0.0 24.4
2016-May-20 17:54N 29°28' W 048°26'2 0.8 24.4
2016-May-20 14:45N 29°26' W 048°27'0 0.0 24.1
2016-May-20 14:01N 29°26' W 048°27'212.9 24.0
2016-May-20 13:54N 29°25' W 048°26'0 0.0 24.0
2016-May-20 13:07N 29°25' W 048°26'0 0.1 24.0
2016-May-20 11:06N 29°25' W 048°26'1 0.9 23.9
2016-May-20 10:21N 29°24' W 048°26'1 0.4 23.9
2016-May-20 08:11N 29°25' W 048°25'1 0.5 23.9
2016-May-20 07:04N 29°24' W 048°25'0 0.1 23.9
2016-May-20 06:33N 29°24' W 048°25'0 3.2 23.9
2016-May-20 06:24N 29°24' W 048°25'0 0.1 23.9
2016-May-20 04:44N 29°25' W 048°25'0 0.0 23.9
2016-May-20 01:30N 29°25' W 048°25'0 0.4 24.0
2016-May-20 00:38N 29°25' W 048°26'0 0.0 24.0
2016-May-19 23:54N 29°25' W 048°26'0 0.4 24.0
2016-May-19 23:09N 29°25' W 048°25'1 3.8 24.1
2016-May-19 23:00N 29°24' W 048°26'0 0.0 24.1
2016-May-19 22:44N 29°24' W 048°26'0 0.0 24.1
2016-May-19 22:37N 29°24' W 048°26'1 0.5 24.1
2016-May-19 20:55N 29°24' W 048°27'0 0.0 24.2
2016-May-19 19:49N 29°24' W 048°27'1 0.8
2016-May-19 17:55N 29°23' W 048°28'0 0.0
2016-May-19 16:26N 29°23' W 048°28'1 0.8 24.0
2016-May-19 15:06N 29°22' W 048°27'0 0.0 24.0
2016-May-19 14:21N 29°22' W 048°27'0 5.9 24.0
2016-May-19 14:16N 29°21' W 048°27'0 0.0 24.0
2016-May-19 13:30N 29°21' W 048°27'013.1 23.9
2016-May-19 13:28N 29°21' W 048°27'0 0.4 23.9
2016-May-19 12:36N 29°21' W 048°27'1 6.3 23.9
2016-May-19 12:31N 29°21' W 048°27'0 0.0 23.9
2016-May-19 11:18N 29°21' W 048°27'1 9.2 23.8
2016-May-19 11:10N 29°20' W 048°26'0 0.0
2016-May-19 09:54N 29°20' W 048°26'1 3.1 23.8
2016-May-19 09:40N 29°20' W 048°25'0 2.4
2016-May-19 09:36N 29°20' W 048°26'0 0.6 23.8
2016-May-19 09:15N 29°20' W 048°26'0 0.4 23.8
2016-May-19 08:19N 29°20' W 048°25'0 0.0 23.8
2016-May-19 08:01N 29°20' W 048°25'0 0.0 23.8
2016-May-19 07:54N 29°20' W 048°25'1 0.7 23.9
2016-May-19 06:39N 29°20' W 048°24'0 8.2 23.9
2016-May-19 06:36N 29°20' W 048°25'1 0.1 23.9
2016-May-19 01:54N 29°19' W 048°24'0 0.0
2016-May-19 01:08N 29°19' W 048°24'0 2.2 24.0
2016-May-19 01:01N 29°19' W 048°25'0 0.0 24.0
2016-May-19 00:18N 29°19' W 048°25'0 0.5 24.0
2016-May-18 23:40N 29°19' W 048°24'0 0.2 24.0
2016-May-18 23:26N 29°19' W 048°24'0 1.0 24.0
2016-May-18 23:23N 29°19' W 048°24'0 0.6 24.0
2016-May-18 22:50N 29°19' W 048°24'0 0.2 24.1
2016-May-18 21:32N 29°19' W 048°24'0 3.8 24.2
2016-May-18 21:25N 29°19' W 048°25'0 0.0 24.2
2016-May-18 21:09N 29°19' W 048°25'1 0.8
2016-May-18 20:17N 29°19' W 048°25'0 0.0 24.4
2016-May-18 19:52N 29°19' W 048°25'0 1.0 24.4
2016-May-18 19:32N 29°19' W 048°25'1 0.5 24.4
2016-May-18 18:18N 29°18' W 048°24'0 1.8
2016-May-18 18:16N 29°18' W 048°24'1 0.5 24.4
2016-May-18 16:38N 29°18' W 048°25'1 0.5 24.4
2016-May-18 14:36N 29°17' W 048°24'0 0.0 24.3
2016-May-18 13:50N 29°17' W 048°24'0 0.2 24.2
2016-May-18 12:07N 29°17' W 048°23'0 0.6 23.9
2016-May-18 11:29N 29°16' W 048°23'0 0.1 23.9
2016-May-18 09:51N 29°16' W 048°23'0 0.3 23.9
2016-May-18 08:33N 29°16' W 048°23'0 0.7 23.9
2016-May-18 08:04N 29°16' W 048°22'0 0.2 24.0
2016-May-18 06:47N 29°16' W 048°22'0 0.0 24.0
2016-May-18 02:13N 29°16' W 048°22'0 0.0 24.2
2016-May-18 01:26N 29°16' W 048°22'0 1.1 24.2
2016-May-18 01:19N 29°16' W 048°22'0 0.0 24.2
2016-May-18 00:40N 29°16' W 048°22'0 0.8 24.2
2016-May-18 00:36N 29°16' W 048°22'0 2.0 24.2
2016-May-18 00:31N 29°16' W 048°23'0 0.1 24.2
2016-May-17 22:58N 29°16' W 048°23'0 2.6 24.3
2016-May-17 22:53N 29°16' W 048°22'0 0.3 24.3
2016-May-17 21:54N 29°16' W 048°22'0 1.4 24.5
2016-May-17 21:47N 29°16' W 048°22'0 0.0 24.5
2016-May-17 21:24N 29°16' W 048°22'0 1.2
2016-May-17 21:20N 29°16' W 048°22'1 0.6 24.5
2016-May-17 20:18N 29°16' W 048°23'0 3.8 24.5
2016-May-17 20:13N 29°16' W 048°23'0 0.0 24.5
2016-May-17 19:44N 29°16' W 048°23'0 0.2 24.7
2016-May-17 18:24N 29°16' W 048°23'   25.1

Dump ship's entire track history